Time;durP1;ratioP1;P1;durP2;ratioP2;P2;SDS_P1;SDS_P2;PMS_P1;PMS_P2;Temp;Humidity;BMP_temperature;BMP_pressure;BME280_temperature;BME280_humidity;BME280_pressure;Samples;Min_cycle;Max_cycle;Signal;HPM_P1;HPM_P2
2023/12/06 00:00:15;;;;;;;7.10;3.47;;;1.70;93.10;;;;;;5070101;28;20040;-73
2023/12/06 00:02:41;;;;;;;6.82;3.47;;;1.70;93.10;;;;;;5053065;28;20623;-73
2023/12/06 00:05:10;;;;;;;8.35;4.30;;;1.70;93.10;;;;;;5052997;28;20127;-74
2023/12/06 00:07:37;;;;;;;7.18;4.05;;;1.70;93.00;;;;;;5070029;28;20048;-74
2023/12/06 00:10:03;;;;;;;6.80;3.90;;;1.70;93.00;;;;;;5070009;28;20060;-74
2023/12/06 00:12:29;;;;;;;8.82;3.95;;;1.70;93.30;;;;;;5082732;28;20044;-74
2023/12/06 00:14:54;;;;;;;6.15;2.95;;;1.70;93.00;;;;;;5111177;28;20040;-74
2023/12/06 00:17:20;;;;;;;5.70;3.40;;;1.70;93.10;;;;;;5111132;28;20399;-74
2023/12/06 00:19:46;;;;;;;7.43;3.25;;;1.80;93.10;;;;;;5114490;27;20039;-74
2023/12/06 00:22:11;;;;;;;7.60;3.75;;;1.70;93.00;;;;;;5097402;27;20039;-74
2023/12/06 00:24:38;;;;;;;5.40;2.92;;;1.70;93.00;;;;;;5111027;28;20494;-74
2023/12/06 00:27:04;;;;;;;6.68;3.80;;;1.80;93.00;;;;;;5110816;28;20088;-74
2023/12/06 00:29:29;;;;;;;6.53;3.15;;;1.80;93.00;;;;;;5110778;28;20047;-74
2023/12/06 00:31:55;;;;;;;11.95;5.60;;;1.80;93.00;;;;;;5111996;28;20048;-74
2023/12/06 00:34:21;;;;;;;8.57;4.72;;;1.80;93.00;;;;;;5112161;28;20042;-74
2023/12/06 00:36:50;;;;;;;8.10;4.70;;;1.80;93.00;;;;;;5112686;28;20043;-74
2023/12/06 00:39:15;;;;;;;5.90;3.28;;;1.80;93.00;;;;;;5112890;28;20036;-74
2023/12/06 00:41:41;;;;;;;8.27;4.28;;;1.80;93.00;;;;;;5114926;28;20478;-74
2023/12/06 00:44:07;;;;;;;6.70;3.38;;;1.80;93.00;;;;;;5115793;28;20023;-73
2023/12/06 00:46:34;;;;;;;6.78;3.90;;;1.80;93.00;;;;;;5114390;28;20034;-74
2023/12/06 00:49:00;;;;;;;7.82;4.07;;;1.90;93.00;;;;;;5116161;28;20109;-74
2023/12/06 00:51:27;;;;;;;7.20;3.83;;;1.90;93.00;;;;;;5135724;27;20039;-73
2023/12/06 00:53:52;;;;;;;7.80;3.67;;;1.90;93.00;;;;;;5116628;28;20540;-74
2023/12/06 00:56:18;;;;;;;6.15;3.35;;;1.90;92.90;;;;;;5100464;27;20039;-74
2023/12/06 00:58:44;;;;;;;6.72;3.67;;;1.90;92.90;;;;;;5135864;27;20398;-73
2023/12/06 01:01:12;;;;;;;5.78;2.97;;;1.90;92.90;;;;;;5096915;28;20127;-74
2023/12/06 01:03:41;;;;;;;6.20;3.28;;;2.00;93.00;;;;;;5114946;28;20043;-73
2023/12/06 01:06:08;;;;;;;5.38;2.65;;;1.90;92.90;;;;;;5113665;28;20418;-74
2023/12/06 01:08:34;;;;;;;6.45;3.15;;;2.00;92.90;;;;;;5113795;28;20192;-74
2023/12/06 01:11:00;;;;;;;5.57;2.83;;;2.00;92.90;;;;;;5114383;28;20510;-74
2023/12/06 01:13:25;;;;;;;7.13;3.50;;;2.00;92.90;;;;;;5113721;28;20441;-73
2023/12/06 01:15:51;;;;;;;7.32;3.70;;;2.00;92.90;;;;;;5113529;28;20390;-74
2023/12/06 01:18:17;;;;;;;6.57;3.58;;;2.00;92.90;;;;;;5113692;28;20122;-74
2023/12/06 01:20:42;;;;;;;6.28;3.17;;;2.00;92.90;;;;;;5113532;28;20436;-74
2023/12/06 01:23:08;;;;;;;8.18;4.35;;;2.00;92.90;;;;;;5115349;28;20051;-74
2023/12/06 01:25:34;;;;;;;7.57;3.92;;;2.00;92.90;;;;;;5096497;28;20502;-73
2023/12/06 01:28:00;;;;;;;8.05;3.88;;;2.00;92.90;;;;;;5115287;28;20040;-74
2023/12/06 01:30:26;;;;;;;6.70;3.30;;;2.00;92.90;;;;;;5113728;28;20040;-73
2023/12/06 01:32:51;;;;;;;6.00;3.03;;;2.10;92.90;;;;;;5115833;28;20100;-74
2023/12/06 01:35:17;;;;;;;6.07;2.85;;;2.10;92.90;;;;;;5135519;27;20039;-74
2023/12/06 01:37:43;;;;;;;5.88;2.70;;;2.10;92.90;;;;;;5082638;27;20080;-74
2023/12/06 01:40:09;;;;;;;5.82;2.60;;;2.10;92.90;;;;;;5134957;27;20226;-73
2023/12/06 01:42:36;;;;;;;5.00;2.63;;;2.20;93.00;;;;;;5135546;27;20140;-73
2023/12/06 01:45:02;;;;;;;5.72;2.78;;;2.20;92.90;;;;;;5116593;27;20054;-73
2023/12/06 01:47:30;;;;;;;4.55;2.70;;;2.10;92.90;;;;;;5099556;28;20494;-73
2023/12/06 01:49:59;;;;;;;4.63;2.60;;;2.20;92.90;;;;;;5134764;27;20039;-73
2023/12/06 01:52:25;;;;;;;5.63;2.63;;;2.20;92.90;;;;;;5112768;28;20039;-73
2023/12/06 01:54:51;;;;;;;5.45;2.85;;;2.20;92.90;;;;;;5114352;28;20039;-73
2023/12/06 01:57:17;;;;;;;4.68;2.55;;;2.20;93.00;;;;;;5113888;28;20039;-73
2023/12/06 01:59:43;;;;;;;4.60;2.30;;;2.20;93.00;;;;;;5096051;28;20044;-73
2023/12/06 02:02:11;;;;;;;5.63;2.83;;;2.30;93.00;;;;;;5134552;27;20066;-73
2023/12/06 02:04:38;;;;;;;3.63;1.90;;;2.30;93.00;;;;;;5112936;28;20052;-73
2023/12/06 02:07:04;;;;;;;4.43;2.28;;;2.30;93.00;;;;;;5114121;28;20043;-73
2023/12/06 02:09:30;;;;;;;4.53;2.00;;;2.30;93.00;;;;;;5114652;28;20035;-72
2023/12/06 02:11:56;;;;;;;4.40;2.15;;;2.30;93.00;;;;;;5114235;28;20040;-72
2023/12/06 02:14:21;;;;;;;5.78;2.35;;;2.30;93.00;;;;;;5113972;28;20513;-73
2023/12/06 02:16:48;;;;;;;5.05;2.67;;;2.30;93.00;;;;;;5113921;28;20096;-73
2023/12/06 02:19:20;;;;;;;4.75;2.45;;;2.40;93.00;;;;;;5095836;28;20039;-73
2023/12/06 02:21:46;;;;;;;6.05;2.55;;;2.40;93.00;;;;;;5113959;28;20055;-72
2023/12/06 02:24:13;;;;;;;5.28;2.58;;;2.40;93.00;;;;;;5112793;28;20058;-72
2023/12/06 02:26:39;;;;;;;4.82;2.40;;;2.40;93.00;;;;;;5112642;28;20043;-73
2023/12/06 02:29:04;;;;;;;5.25;2.63;;;2.40;93.00;;;;;;5113861;28;20032;-73
2023/12/06 02:31:30;;;;;;;5.75;2.97;;;2.50;93.00;;;;;;5112967;28;20055;-73
2023/12/06 02:34:01;;;;;;;4.05;2.22;;;2.50;93.00;;;;;;5113636;28;20047;-73
2023/12/06 02:36:29;;;;;;;4.53;2.47;;;2.50;93.00;;;;;;5119322;27;20522;-73
2023/12/06 02:38:55;;;;;;;6.13;2.97;;;2.50;92.90;;;;;;5134680;27;20043;-73
2023/12/06 02:41:23;;;;;;;5.60;2.50;;;2.50;92.90;;;;;;5115768;28;20043;-73
2023/12/06 02:43:49;;;;;;;4.60;2.10;;;2.50;92.90;;;;;;5112755;28;20065;-73
2023/12/06 02:46:15;;;;;;;3.97;2.13;;;2.50;92.90;;;;;;5113276;28;20542;-73
2023/12/06 02:48:41;;;;;;;4.82;2.05;;;2.50;92.90;;;;;;5112175;28;20559;-73
2023/12/06 02:51:06;;;;;;;4.60;2.28;;;2.60;92.90;;;;;;5113309;28;20031;-73
2023/12/06 02:53:32;;;;;;;5.28;2.33;;;2.60;92.90;;;;;;5111935;28;20097;-73
2023/12/06 02:55:58;;;;;;;4.18;2.00;;;2.60;92.90;;;;;;5111974;28;20062;-73
2023/12/06 02:58:24;;;;;;;4.82;2.40;;;2.60;92.90;;;;;;5111965;28;20048;-73
2023/12/06 03:00:50;;;;;;;2.92;1.60;;;2.70;93.00;;;;;;5095234;28;20086;-73
2023/12/06 03:03:16;;;;;;;4.97;2.47;;;2.60;92.90;;;;;;5077887;28;20096;-73
2023/12/06 03:05:41;;;;;;;4.10;2.25;;;2.70;93.00;;;;;;5112937;28;20044;-73
2023/12/06 03:08:08;;;;;;;4.45;2.10;;;2.70;93.00;;;;;;5111724;28;20067;-73
2023/12/06 03:10:34;;;;;;;4.47;2.25;;;2.70;93.00;;;;;;5113111;27;20107;-73
2023/12/06 03:13:00;;;;;;;5.32;2.90;;;2.70;93.00;;;;;;5134011;27;20700;-73
2023/12/06 03:15:25;;;;;;;5.53;2.92;;;2.70;93.00;;;;;;5115358;28;20062;-73
2023/12/06 03:17:51;;;;;;;5.20;2.80;;;2.70;93.00;;;;;;5111810;28;20160;-73
2023/12/06 03:20:17;;;;;;;4.70;2.30;;;2.70;93.00;;;;;;5113375;28;20089;-73
2023/12/06 03:22:43;;;;;;;4.78;2.40;;;2.70;93.00;;;;;;5067992;28;20475;-74
2023/12/06 03:25:09;;;;;;;6.15;2.58;;;2.70;93.00;;;;;;5068591;28;20064;-73
2023/12/06 03:27:35;;;;;;;6.22;3.13;;;2.70;93.00;;;;;;5070417;28;20089;-73
2023/12/06 03:30:00;;;;;;;4.35;2.33;;;2.80;93.00;;;;;;5053411;28;20064;-73
2023/12/06 03:32:26;;;;;;;5.70;2.80;;;2.80;93.00;;;;;;5069269;28;20040;-73
2023/12/06 03:34:52;;;;;;;5.97;2.65;;;2.80;93.00;;;;;;5051984;28;20048;-73
2023/12/06 03:37:17;;;;;;;4.65;2.20;;;2.80;93.00;;;;;;5069544;28;20080;-73
2023/12/06 03:39:43;;;;;;;7.18;2.58;;;2.80;93.00;;;;;;5053105;28;20503;-73
2023/12/06 03:42:09;;;;;;;5.43;2.80;;;2.90;93.00;;;;;;5051720;28;20044;-73
2023/12/06 03:44:35;;;;;;;5.97;3.45;;;2.90;93.00;;;;;;5069975;28;20056;-73
2023/12/06 03:47:00;;;;;;;6.93;2.90;;;2.80;93.00;;;;;;5052416;28;20131;-73
2023/12/06 03:49:26;;;;;;;4.88;2.30;;;2.80;93.00;;;;;;5070056;28;20041;-73
2023/12/06 03:51:52;;;;;;;4.60;2.50;;;2.80;93.00;;;;;;5069725;28;20040;-73
2023/12/06 03:54:18;;;;;;;5.45;2.67;;;2.80;93.00;;;;;;5101059;28;20047;-73
2023/12/06 03:56:44;;;;;;;5.78;2.58;;;2.80;93.00;;;;;;5112870;28;20047;-73
2023/12/06 03:59:09;;;;;;;3.75;2.08;;;2.90;93.10;;;;;;5094228;28;20380;-73
2023/12/06 04:01:35;;;;;;;4.40;2.05;;;2.90;93.10;;;;;;5111014;28;20043;-73
2023/12/06 04:04:01;;;;;;;5.30;2.67;;;3.00;93.10;;;;;;5111303;28;20099;-73
2023/12/06 04:06:26;;;;;;;5.05;2.53;;;3.10;93.10;;;;;;5111039;28;20056;-73
2023/12/06 04:08:52;;;;;;;5.72;2.58;;;2.90;93.10;;;;;;5130176;27;20560;-73
2023/12/06 04:11:18;;;;;;;5.05;2.55;;;2.90;93.10;;;;;;5133020;27;20042;-73
2023/12/06 04:13:44;;;;;;;5.50;2.92;;;3.00;93.10;;;;;;5115042;27;20043;-73
2023/12/06 04:16:10;;;;;;;4.70;2.33;;;2.90;93.10;;;;;;5136090;27;20027;-73
2023/12/06 04:18:35;;;;;;;4.78;2.45;;;3.00;93.10;;;;;;5136379;27;20516;-72
2023/12/06 04:21:01;;;;;;;6.95;3.33;;;2.90;93.00;;;;;;5118381;28;20039;-73
2023/12/06 04:23:27;;;;;;;4.65;2.40;;;3.00;93.10;;;;;;5118601;28;21066;-72
2023/12/06 04:25:53;;;;;;;6.13;2.85;;;3.00;93.00;;;;;;5114063;28;20094;-74
2023/12/06 04:28:18;;;;;;;6.55;3.17;;;3.00;93.00;;;;;;5114170;28;20036;-73
2023/12/06 04:30:44;;;;;;;6.03;3.17;;;3.00;93.00;;;;;;5115756;28;20075;-73
2023/12/06 04:33:10;;;;;;;6.18;2.90;;;3.00;93.00;;;;;;5114356;28;20067;-73
2023/12/06 04:35:35;;;;;;;6.00;3.40;;;3.00;93.00;;;;;;5097825;28;20036;-73
2023/12/06 04:38:01;;;;;;;5.00;2.60;;;3.10;93.00;;;;;;5097152;28;20043;-73
2023/12/06 04:40:27;;;;;;;5.10;2.70;;;3.10;93.00;;;;;;5114358;28;20051;-73
2023/12/06 04:42:53;;;;;;;3.83;2.10;;;3.10;93.00;;;;;;5114233;28;20040;-73
2023/12/06 04:45:18;;;;;;;3.72;2.10;;;3.20;93.00;;;;;;5115463;28;20043;-73
2023/12/06 04:47:44;;;;;;;5.10;2.53;;;3.10;93.00;;;;;;5114143;28;20096;-73
2023/12/06 04:50:10;;;;;;;4.97;2.63;;;3.10;93.00;;;;;;5115939;28;20375;-73
2023/12/06 04:52:36;;;;;;;3.30;1.80;;;3.20;93.00;;;;;;5115602;28;20042;-73
2023/12/06 04:55:04;;;;;;;4.60;2.58;;;3.10;93.00;;;;;;5114526;28;20092;-73
2023/12/06 04:57:30;;;;;;;5.15;2.67;;;3.20;93.00;;;;;;5113667;28;20050;-73
2023/12/06 04:59:56;;;;;;;5.53;2.35;;;3.20;93.00;;;;;;5113876;28;20053;-73
2023/12/06 05:02:22;;;;;;;4.82;2.20;;;3.10;93.00;;;;;;5115211;28;20086;-73
2023/12/06 05:04:48;;;;;;;4.63;2.45;;;3.30;93.10;;;;;;5115726;28;20110;-73
2023/12/06 05:07:13;;;;;;;3.85;2.10;;;3.20;93.00;;;;;;5080093;28;20039;-73
2023/12/06 05:09:39;;;;;;;4.82;2.40;;;3.20;93.10;;;;;;5113833;28;20445;-73
2023/12/06 05:12:05;;;;;;;3.88;1.98;;;3.30;93.10;;;;;;5114283;28;20043;-73
2023/12/06 05:14:31;;;;;;;3.10;1.83;;;3.30;93.10;;;;;;5096871;28;20044;-73
2023/12/06 05:16:57;;;;;;;4.38;1.98;;;3.30;93.10;;;;;;5115097;28;20039;-73
2023/12/06 05:19:22;;;;;;;4.43;2.15;;;3.30;93.10;;;;;;5115399;28;20086;-73
2023/12/06 05:21:48;;;;;;;4.00;2.10;;;3.30;93.10;;;;;;5096490;28;20036;-73
2023/12/06 05:24:14;;;;;;;5.40;2.70;;;3.30;93.10;;;;;;5115075;28;20044;-73
2023/12/06 05:26:40;;;;;;;4.43;2.03;;;3.30;93.10;;;;;;5113597;28;20042;-73
2023/12/06 05:29:05;;;;;;;4.75;2.45;;;3.30;93.10;;;;;;5120541;27;20502;-73
2023/12/06 05:31:31;;;;;;;3.50;2.20;;;3.30;93.10;;;;;;5135456;27;20039;-73
2023/12/06 05:33:58;;;;;;;6.00;2.88;;;3.30;93.10;;;;;;5117113;27;20054;-73
2023/12/06 05:36:24;;;;;;;3.72;2.17;;;3.30;93.10;;;;;;5100468;28;20394;-73
2023/12/06 05:38:49;;;;;;;4.22;2.28;;;3.30;93.10;;;;;;5135016;27;20046;-73
2023/12/06 05:41:15;;;;;;;4.53;2.03;;;3.40;93.10;;;;;;5135794;27;20035;-73
2023/12/06 05:43:41;;;;;;;4.38;2.25;;;3.30;93.00;;;;;;5113201;28;20035;-75
2023/12/06 05:46:07;;;;;;;3.75;1.90;;;3.30;93.10;;;;;;5113455;28;20134;-73
2023/12/06 05:48:32;;;;;;;4.10;1.95;;;3.40;93.10;;;;;;5113368;28;20040;-74
2023/12/06 05:50:58;;;;;;;4.15;2.30;;;3.40;93.10;;;;;;5079446;28;20100;-73
2023/12/06 05:53:24;;;;;;;4.00;1.92;;;3.40;93.10;;;;;;5133810;27;20449;-73
2023/12/06 05:55:50;;;;;;;4.95;2.28;;;3.40;93.10;;;;;;5134997;27;20039;-72
2023/12/06 05:58:16;;;;;;;4.85;2.13;;;3.40;93.10;;;;;;5135272;27;20550;-73
2023/12/06 06:00:41;;;;;;;4.72;1.73;;;3.40;93.10;;;;;;5134821;27;20043;-73
2023/12/06 06:03:07;;;;;;;3.60;1.92;;;3.40;93.10;;;;;;5116534;27;20110;-73
2023/12/06 06:05:33;;;;;;;3.25;1.85;;;3.40;93.10;;;;;;5096175;28;20094;-73
2023/12/06 06:07:59;;;;;;;2.92;1.63;;;3.50;93.20;;;;;;5095737;28;20046;-74
2023/12/06 06:10:25;;;;;;;4.85;2.30;;;3.40;93.10;;;;;;5095875;28;20430;-73
2023/12/06 06:12:51;;;;;;;3.30;1.65;;;3.50;93.20;;;;;;5113038;28;20488;-74
2023/12/06 06:15:17;;;;;;;3.03;1.70;;;3.50;93.10;;;;;;5112858;28;20046;-73
2023/12/06 06:17:43;;;;;;;3.25;1.63;;;3.50;93.10;;;;;;5096208;28;20137;-73
2023/12/06 06:20:10;;;;;;;4.20;2.20;;;3.50;93.20;;;;;;5114118;28;20051;-72
2023/12/06 06:22:37;;;;;;;2.38;1.25;;;3.50;93.40;;;;;;5112832;28;20044;-73
2023/12/06 06:25:03;;;;;;;3.00;1.70;;;3.50;93.20;;;;;;5114101;28;20122;-73
2023/12/06 06:27:29;;;;;;;5.85;2.50;;;3.50;93.20;;;;;;5114012;28;20040;-73
2023/12/06 06:29:55;;;;;;;3.95;2.00;;;3.70;93.20;;;;;;5114014;28;20122;-73
2023/12/06 06:32:21;;;;;;;4.32;2.00;;;3.60;93.20;;;;;;5112422;28;20040;-73
2023/12/06 06:34:47;;;;;;;4.03;1.98;;;3.50;93.20;;;;;;5113796;28;20031;-73
2023/12/06 06:37:13;;;;;;;3.88;1.90;;;3.60;93.20;;;;;;5112139;28;20479;-73
2023/12/06 06:39:39;;;;;;;2.80;1.45;;;3.60;93.20;;;;;;5112942;28;20139;-73
2023/12/06 06:42:06;;;;;;;2.85;1.75;;;3.60;93.20;;;;;;5112365;28;20058;-73
2023/12/06 06:44:32;;;;;;;3.55;1.83;;;3.60;93.20;;;;;;5130845;27;20046;-73
2023/12/06 06:46:57;;;;;;;3.03;1.75;;;3.60;93.20;;;;;;5115895;28;20035;-73
2023/12/06 06:49:24;;;;;;;3.50;1.92;;;3.60;93.20;;;;;;5134195;27;20099;-73
2023/12/06 06:51:50;;;;;;;4.18;2.13;;;3.60;93.20;;;;;;5112366;28;20040;-73
2023/12/06 06:54:15;;;;;;;4.45;2.13;;;3.60;93.20;;;;;;5112364;28;20054;-73
2023/12/06 06:56:41;;;;;;;3.53;1.95;;;3.60;93.20;;;;;;5112219;28;20073;-73
2023/12/06 06:59:07;;;;;;;4.10;2.08;;;3.60;93.20;;;;;;5113590;28;20035;-74
2023/12/06 07:01:33;;;;;;;4.38;2.20;;;3.70;93.30;;;;;;5113902;28;20131;-73
2023/12/06 07:03:58;;;;;;;3.22;1.73;;;3.60;93.20;;;;;;5112030;28;20044;-73
2023/12/06 07:06:24;;;;;;;3.58;1.73;;;3.70;93.30;;;;;;5112008;28;20046;-73
2023/12/06 07:08:50;;;;;;;4.45;2.10;;;3.70;93.30;;;;;;5110872;28;20384;-74
2023/12/06 07:11:16;;;;;;;3.33;1.88;;;3.70;93.30;;;;;;5112029;28;20156;-73
2023/12/06 07:13:42;;;;;;;4.72;2.05;;;3.70;93.30;;;;;;5113122;28;20069;-74
2023/12/06 07:16:08;;;;;;;3.42;1.92;;;3.70;93.30;;;;;;5111938;28;20043;-74
2023/12/06 07:18:34;;;;;;;3.30;1.83;;;3.70;93.30;;;;;;5112005;28;20043;-73
2023/12/06 07:21:00;;;;;;;3.42;1.90;;;3.70;93.20;;;;;;5112086;28;20043;-73
2023/12/06 07:23:26;;;;;;;3.25;1.65;;;3.70;93.20;;;;;;5112158;28;20157;-73
2023/12/06 07:25:52;;;;;;;4.72;1.85;;;3.70;93.20;;;;;;5112370;28;20071;-72
2023/12/06 07:28:18;;;;;;;2.92;1.40;;;3.80;93.20;;;;;;5112013;28;20050;-74
2023/12/06 07:30:44;;;;;;;2.67;1.67;;;3.80;93.20;;;;;;5111868;28;20040;-74
2023/12/06 07:33:11;;;;;;;2.78;1.40;;;3.80;93.20;;;;;;5111655;28;20513;-74
2023/12/06 07:35:37;;;;;;;2.58;1.45;;;3.80;93.20;;;;;;5113772;28;20042;-74
2023/12/06 07:38:04;;;;;;;3.05;1.90;;;3.80;93.20;;;;;;5112721;28;20050;-74
2023/12/06 07:40:30;;;;;;;3.53;1.77;;;3.80;93.20;;;;;;5111222;28;20043;-74
2023/12/06 07:42:55;;;;;;;2.90;1.73;;;3.80;93.20;;;;;;5111507;28;20042;-74
2023/12/06 07:45:21;;;;;;;2.85;1.65;;;3.90;93.30;;;;;;5094478;28;20073;-73
2023/12/06 07:47:50;;;;;;;3.85;1.92;;;3.80;93.20;;;;;;5112171;28;20040;-74
2023/12/06 07:50:16;;;;;;;3.35;1.83;;;3.90;93.20;;;;;;5094480;28;20040;-73
2023/12/06 07:52:42;;;;;;;2.40;1.40;;;3.90;93.20;;;;;;5114039;27;20043;-74
2023/12/06 07:55:09;;;;;;;3.28;1.70;;;3.90;93.20;;;;;;5133490;27;20070;-73
2023/12/06 07:57:36;;;;;;;2.33;1.50;;;3.80;93.20;;;;;;5115373;27;20043;-73
2023/12/06 08:00:04;;;;;;;3.20;1.75;;;3.90;93.20;;;;;;5115404;27;20047;-73
2023/12/06 08:02:32;;;;;;;3.83;2.15;;;4.00;93.20;;;;;;5133050;27;20043;-74
2023/12/06 08:04:58;;;;;;;3.55;1.70;;;3.90;93.20;;;;;;5115672;27;20039;-73
2023/12/06 08:07:24;;;;;;;4.38;1.73;;;4.00;93.20;;;;;;5132864;27;20087;-73
2023/12/06 08:09:52;;;;;;;3.80;2.03;;;4.00;93.30;;;;;;5111149;28;20499;-73
2023/12/06 08:12:20;;;;;;;3.28;1.85;;;4.00;93.20;;;;;;5111163;28;20126;-74
2023/12/06 08:14:46;;;;;;;3.63;1.60;;;4.00;93.30;;;;;;5112387;28;20040;-74
2023/12/06 08:17:12;;;;;;;3.72;1.95;;;4.00;93.20;;;;;;5111291;28;20483;-73
2023/12/06 08:19:37;;;;;;;3.10;1.58;;;4.00;93.20;;;;;;5097490;27;20051;-74
2023/12/06 08:22:04;;;;;;;3.08;1.60;;;4.10;93.20;;;;;;5111201;28;20051;-73
2023/12/06 08:24:30;;;;;;;3.20;1.60;;;4.00;93.20;;;;;;5112278;28;20066;-74
2023/12/06 08:26:55;;;;;;;4.85;2.10;;;4.10;93.20;;;;;;5110762;28;20483;-73
2023/12/06 08:29:21;;;;;;;3.10;1.77;;;4.10;93.20;;;;;;5112167;28;20043;-73
2023/12/06 08:31:47;;;;;;;3.33;1.60;;;4.10;93.20;;;;;;5110714;28;20486;-74
2023/12/06 08:34:12;;;;;;;3.95;2.20;;;4.10;93.20;;;;;;5111545;28;20477;-73
2023/12/06 08:36:38;;;;;;;3.90;1.95;;;4.10;93.20;;;;;;5110993;28;20044;-73
2023/12/06 08:39:04;;;;;;;4.80;1.98;;;4.20;93.20;;;;;;5110909;28;20044;-73
2023/12/06 08:41:29;;;;;;;2.95;1.52;;;4.10;93.20;;;;;;5112090;28;20043;-73
2023/12/06 08:43:55;;;;;;;2.90;1.48;;;4.20;93.20;;;;;;5111121;28;20039;-73
2023/12/06 08:46:22;;;;;;;3.17;1.58;;;4.20;93.20;;;;;;5093862;28;20514;-74
2023/12/06 08:48:50;;;;;;;2.05;1.10;;;4.20;93.20;;;;;;5110643;28;20036;-74
2023/12/06 08:51:16;;;;;;;2.90;1.42;;;4.20;93.20;;;;;;5111841;28;20040;-74
2023/12/06 08:53:42;;;;;;;1.65;1.17;;;4.20;93.20;;;;;;5093662;28;20042;-73
2023/12/06 08:56:08;;;;;;;1.33;0.93;;;4.30;93.20;;;;;;5088641;28;20130;-73
2023/12/06 08:58:34;;;;;;;1.95;1.20;;;4.30;93.20;;;;;;5110630;28;20040;-74
2023/12/06 09:00:59;;;;;;;2.45;1.38;;;4.30;93.20;;;;;;5113511;28;20092;-74
2023/12/06 09:03:25;;;;;;;2.97;1.42;;;4.30;93.20;;;;;;5080178;28;20407;-74
2023/12/06 09:05:51;;;;;;;3.33;1.58;;;4.30;93.20;;;;;;5114150;28;20039;-73
2023/12/06 09:08:16;;;;;;;2.47;1.38;;;4.30;93.20;;;;;;5113878;28;20147;-73
2023/12/06 09:10:42;;;;;;;3.00;1.80;;;4.30;93.20;;;;;;5117222;27;20035;-74
2023/12/06 09:13:08;;;;;;;2.67;1.38;;;4.40;93.20;;;;;;5136243;27;20035;-74
2023/12/06 09:15:33;;;;;;;3.60;1.92;;;4.40;93.20;;;;;;5096979;28;20122;-73
2023/12/06 09:17:59;;;;;;;2.65;1.60;;;4.40;93.10;;;;;;5136001;27;20126;-74
2023/12/06 09:20:25;;;;;;;3.08;1.80;;;4.40;93.10;;;;;;5135741;27;20502;-73
2023/12/06 09:22:51;;;;;;;2.17;1.40;;;4.40;93.10;;;;;;5117061;27;20091;-74
2023/12/06 09:25:17;;;;;;;3.03;1.80;;;4.40;93.10;;;;;;5117296;28;20047;-73
2023/12/06 09:27:43;;;;;;;2.03;1.25;;;4.40;93.10;;;;;;5135540;27;20062;-74
2023/12/06 09:30:09;;;;;;;4.05;1.70;;;4.50;93.10;;;;;;5100775;27;20423;-75
2023/12/06 09:32:35;;;;;;;3.88;1.88;;;4.50;93.10;;;;;;5100260;28;20049;-74
2023/12/06 09:35:01;;;;;;;3.55;1.52;;;4.50;93.10;;;;;;5135967;27;20043;-74
2023/12/06 09:37:26;;;;;;;3.67;2.08;;;4.50;93.10;;;;;;5116888;27;20046;-74
2023/12/06 09:39:53;;;;;;;2.63;1.50;;;4.50;93.10;;;;;;5113562;28;20048;-73
2023/12/06 09:42:26;;;;;;;2.10;1.25;;;4.60;93.10;;;;;;5113631;28;20075;-73
2023/12/06 09:44:52;;;;;;;3.67;1.77;;;4.60;93.10;;;;;;5075469;28;20038;-74
2023/12/06 09:47:19;;;;;;;3.60;1.90;;;4.60;93.00;;;;;;5058575;28;20066;-74
2023/12/06 09:49:45;;;;;;;4.28;1.80;;;4.70;93.10;;;;;;5075335;28;20032;-73
2023/12/06 09:52:22;;;;;;;3.40;1.70;;;4.60;93.00;;;;;;5075134;28;20044;-73
2023/12/06 09:54:51;;;;;;;2.97;1.58;;;4.70;93.00;;;;;;5075855;28;20066;-74
2023/12/06 09:57:17;;;;;;;3.47;1.83;;;4.70;93.00;;;;;;5031718;28;20050;-73
2023/12/06 09:59:44;;;;;;;3.90;1.98;;;4.60;93.00;;;;;;5031526;28;20045;-73
2023/12/06 10:02:09;;;;;;;3.15;1.80;;;4.70;93.00;;;;;;5015344;28;20049;-73
2023/12/06 10:04:35;;;;;;;3.13;1.90;;;4.70;93.00;;;;;;5015231;28;20044;-73
2023/12/06 10:07:02;;;;;;;2.88;1.60;;;4.70;93.00;;;;;;5031817;28;20041;-73
2023/12/06 10:09:28;;;;;;;3.70;1.75;;;4.70;93.10;;;;;;5032033;28;20460;-73
2023/12/06 10:12:06;;;;;;;3.63;1.80;;;4.70;93.10;;;;;;5014234;28;20076;-73
2023/12/06 10:14:32;;;;;;;3.20;1.67;;;4.80;93.10;;;;;;5015147;28;20424;-75
2023/12/06 10:16:58;;;;;;;3.80;1.90;;;4.70;93.10;;;;;;5053307;28;20036;-75
2023/12/06 10:19:23;;;;;;;4.35;1.80;;;4.70;93.00;;;;;;5054553;28;20056;-74
2023/12/06 10:21:53;;;;;;;4.63;2.10;;;4.70;93.00;;;;;;5071804;28;20040;-74
2023/12/06 10:24:21;;;;;;;4.97;2.53;;;4.80;93.00;;;;;;5038079;28;20048;-74
2023/12/06 10:26:59;;;;;;;2.63;1.50;;;4.90;93.00;;;;;;5071492;28;20048;-75
2023/12/06 10:29:26;;;;;;;3.00;1.75;;;4.90;93.00;;;;;;5114093;28;20039;-74
2023/12/06 10:31:52;;;;;;;2.65;1.55;;;4.90;92.90;;;;;;5112689;28;20391;-74
2023/12/06 10:34:19;;;;;;;2.95;1.75;;;4.90;92.90;;;;;;5112537;28;20065;-74
2023/12/06 10:36:47;;;;;;;5.53;1.85;;;4.80;92.90;;;;;;5053829;28;20056;-75
2023/12/06 10:39:16;;;;;;;3.97;2.00;;;5.00;92.90;;;;;;5054261;28;20041;-74
2023/12/06 10:41:47;;;;;;;3.85;1.98;;;5.00;92.90;;;;;;5054170;28;20549;-73
2023/12/06 10:44:13;;;;;;;3.25;1.80;;;5.10;92.90;;;;;;5054343;28;20158;-74
2023/12/06 10:46:40;;;;;;;3.88;1.60;;;5.10;92.80;;;;;;5054235;28;20447;-73
2023/12/06 10:49:08;;;;;;;3.22;1.75;;;5.10;92.80;;;;;;5054616;28;20056;-75
2023/12/06 10:51:35;;;;;;;4.10;1.75;;;5.20;92.80;;;;;;5070909;28;20033;-73
2023/12/06 10:54:01;;;;;;;3.30;1.67;;;5.10;92.70;;;;;;5071065;28;20044;-73
2023/12/06 10:56:28;;;;;;;3.65;2.10;;;5.20;92.70;;;;;;5054416;28;20119;-74
2023/12/06 10:58:56;;;;;;;4.50;2.10;;;5.10;92.60;;;;;;5037543;28;20066;-74
2023/12/06 11:01:24;;;;;;;3.40;1.80;;;5.20;92.60;;;;;;5070948;28;20052;-73
2023/12/06 11:03:51;;;;;;;4.05;1.90;;;5.30;92.60;;;;;;5071181;28;20078;-73
2023/12/06 11:06:42;;;;;;;3.88;1.92;;;5.30;92.60;;;;;;5037807;28;20450;-74
2023/12/06 11:09:35;;;;;;;4.28;2.22;;;5.30;92.60;;;;;;5111970;28;20407;-73
2023/12/06 11:12:28;;;;;;;3.22;1.80;;;5.30;92.60;;;;;;5112951;28;20035;-74
2023/12/06 11:15:18;;;;;;;3.53;1.77;;;5.40;92.50;;;;;;5112045;28;20054;-74
2023/12/06 11:17:55;;;;;;;2.95;1.70;;;5.50;92.50;;;;;;5112301;28;20130;-74
2023/12/06 11:20:21;;;;;;;3.08;1.50;;;5.50;92.40;;;;;;5111799;28;20143;-73
2023/12/06 11:22:48;;;;;;;3.08;1.40;;;5.50;92.40;;;;;;5112058;28;20071;-74
2023/12/06 11:25:14;;;;;;;4.82;2.17;;;5.50;92.40;;;;;;5109633;28;20182;-74
2023/12/06 11:27:41;;;;;;;3.00;1.90;;;5.50;92.40;;;;;;5111639;28;20134;-73
2023/12/06 11:30:16;;;;;;;4.22;2.30;;;5.60;92.40;;;;;;5113109;28;20036;-74
2023/12/06 11:32:43;;;;;;;4.43;2.30;;;5.60;92.30;;;;;;5113157;28;20063;-73
2023/12/06 11:35:09;;;;;;;2.35;1.50;;;5.70;92.30;;;;;;5130539;27;20112;-73
2023/12/06 11:37:35;;;;;;;3.70;1.90;;;5.60;92.20;;;;;;5115087;28;20065;-73
2023/12/06 11:40:14;;;;;;;3.67;1.67;;;5.60;92.20;;;;;;5115015;27;20046;-73
2023/12/06 11:42:39;;;;;;;3.38;1.55;;;5.70;92.20;;;;;;5112901;27;20039;-73
2023/12/06 11:45:21;;;;;;;2.60;1.67;;;5.60;92.20;;;;;;5133538;27;20054;-73
2023/12/06 11:47:47;;;;;;;2.50;1.48;;;5.70;92.20;;;;;;5133139;27;20131;-72
2023/12/06 11:50:14;;;;;;;2.58;1.73;;;5.70;92.20;;;;;;5133182;27;20130;-73
2023/12/06 11:52:55;;;;;;;2.40;1.58;;;5.60;92.20;;;;;;5133293;27;20046;-73
2023/12/06 11:55:23;;;;;;;3.00;1.90;;;5.70;92.30;;;;;;5115148;28;20069;-73
2023/12/06 11:58:00;;;;;;;2.88;1.63;;;5.70;92.20;;;;;;5092247;28;20403;-73
2023/12/06 12:00:28;;;;;;;3.53;1.80;;;5.80;92.20;;;;;;5113187;28;20040;-73
2023/12/06 12:02:54;;;;;;;2.88;1.63;;;5.80;92.20;;;;;;5077723;28;20043;-73
2023/12/06 12:05:21;;;;;;;4.32;2.03;;;5.80;92.50;;;;;;5112040;28;20482;-74
2023/12/06 12:07:46;;;;;;;3.80;1.85;;;5.90;92.20;;;;;;5119529;27;20039;-74
2023/12/06 12:10:12;;;;;;;3.88;1.90;;;6.00;92.20;;;;;;5115076;28;20047;-73
2023/12/06 12:12:38;;;;;;;4.15;2.05;;;6.00;92.00;;;;;;5132809;27;20074;-73
2023/12/06 12:15:04;;;;;;;4.22;2.20;;;6.00;91.90;;;;;;5133040;27;20035;-73
2023/12/06 12:17:30;;;;;;;3.53;1.98;;;6.00;91.90;;;;;;5132900;27;20046;-74
2023/12/06 12:19:56;;;;;;;4.43;2.22;;;6.00;91.90;;;;;;5133122;27;20031;-73
2023/12/06 12:22:22;;;;;;;3.40;2.10;;;6.00;92.00;;;;;;5128949;27;20039;-73
2023/12/06 12:24:48;;;;;;;3.92;1.90;;;6.00;91.90;;;;;;5114486;27;20031;-73
2023/12/06 12:27:18;;;;;;;3.17;1.83;;;5.90;92.00;;;;;;5133292;27;20066;-73
2023/12/06 12:29:45;;;;;;;6.00;2.20;;;6.00;92.00;;;;;;5098250;27;20118;-74
2023/12/06 12:32:11;;;;;;;2.75;1.90;;;6.10;92.00;;;;;;5133504;27;20086;-73
2023/12/06 12:34:37;;;;;;;3.65;1.92;;;6.10;92.00;;;;;;5133681;27;20070;-73
2023/12/06 12:37:03;;;;;;;4.07;1.98;;;6.20;91.90;;;;;;5114605;28;20032;-74
2023/12/06 12:39:29;;;;;;;4.30;2.10;;;6.20;91.90;;;;;;5097605;28;20055;-74
2023/12/06 12:41:55;;;;;;;3.17;1.85;;;6.20;91.90;;;;;;5114314;28;20495;-74
2023/12/06 12:44:21;;;;;;;3.60;1.85;;;6.40;91.90;;;;;;5097382;28;20039;-74
2023/12/06 12:46:47;;;;;;;3.85;2.05;;;6.50;91.90;;;;;;5097151;28;20458;-74
2023/12/06 12:49:15;;;;;;;4.22;2.20;;;6.50;91.70;;;;;;5080491;28;20552;-74
2023/12/06 12:51:42;;;;;;;3.22;1.77;;;6.50;91.60;;;;;;5042043;28;20093;-75
2023/12/06 12:54:14;;;;;;;4.78;2.17;;;6.60;91.60;;;;;;5042575;28;20047;-74